sensor_id;sensor_type;location;lat;lon;timestamp;pressure;altitude;pressure_sealevel;temperature;humidity
61697;BME280;47610;52.252;20.922;2022-11-15T00:02:19;100694.88;;;5.36;100.00
61697;BME280;47610;52.252;20.922;2022-11-15T00:07:41;100691.13;;;5.33;100.00
61697;BME280;47610;52.252;20.922;2022-11-15T00:13:07;100682.79;;;5.31;100.00
61697;BME280;47610;52.252;20.922;2022-11-15T00:18:31;100674.98;;;5.37;100.00
61697;BME280;47610;52.252;20.922;2022-11-15T00:23:53;100669.83;;;5.41;100.00
61697;BME280;47610;52.252;20.922;2022-11-15T00:29:15;100661.30;;;5.46;100.00
61697;BME280;47610;52.252;20.922;2022-11-15T00:34:38;100657.16;;;5.43;100.00
61697;BME280;47610;52.252;20.922;2022-11-15T00:40:00;100648.88;;;5.40;100.00
61697;BME280;47610;52.252;20.922;2022-11-15T00:45:23;100637.59;;;5.40;100.00
61697;BME280;47610;52.252;20.922;2022-11-15T00:50:46;100626.48;;;5.39;100.00
61697;BME280;47610;52.252;20.922;2022-11-15T00:56:08;100626.64;;;5.39;100.00
61697;BME280;47610;52.252;20.922;2022-11-15T01:01:31;100614.05;;;5.33;100.00
61697;BME280;47610;52.252;20.922;2022-11-15T01:06:54;100600.88;;;5.28;100.00
61697;BME280;47610;52.252;20.922;2022-11-15T01:12:16;100598.31;;;5.30;100.00
61697;BME280;47610;52.252;20.922;2022-11-15T01:17:40;100592.39;;;5.27;100.00
61697;BME280;47610;52.252;20.922;2022-11-15T01:23:02;100576.83;;;5.24;100.00
61697;BME280;47610;52.252;20.922;2022-11-15T01:28:24;100572.10;;;5.28;100.00
61697;BME280;47610;52.252;20.922;2022-11-15T01:33:47;100583.20;;;5.29;100.00
61697;BME280;47610;52.252;20.922;2022-11-15T01:39:09;100566.01;;;5.33;100.00
61697;BME280;47610;52.252;20.922;2022-11-15T01:44:40;100564.70;;;5.36;100.00
61697;BME280;47610;52.252;20.922;2022-11-15T01:50:05;100567.48;;;5.40;100.00
61697;BME280;47610;52.252;20.922;2022-11-15T01:55:29;100552.80;;;5.42;100.00
61697;BME280;47610;52.252;20.922;2022-11-15T02:00:51;100548.77;;;5.43;100.00
61697;BME280;47610;52.252;20.922;2022-11-15T02:06:14;100533.55;;;5.47;100.00
61697;BME280;47610;52.252;20.922;2022-11-15T02:11:37;100533.04;;;5.48;100.00
61697;BME280;47610;52.252;20.922;2022-11-15T02:17:06;100531.95;;;5.43;100.00
61697;BME280;47610;52.252;20.922;2022-11-15T02:22:40;100523.38;;;5.38;100.00
61697;BME280;47610;52.252;20.922;2022-11-15T02:28:41;100518.81;;;5.39;100.00
61697;BME280;47610;52.252;20.922;2022-11-15T02:34:11;100514.76;;;5.39;100.00
61697;BME280;47610;52.252;20.922;2022-11-15T02:39:46;100505.94;;;5.39;100.00
61697;BME280;47610;52.252;20.922;2022-11-15T02:45:18;100507.21;;;5.40;100.00
61697;BME280;47610;52.252;20.922;2022-11-15T02:50:42;100498.79;;;5.42;100.00
61697;BME280;47610;52.252;20.922;2022-11-15T02:56:08;100496.60;;;5.42;100.00
61697;BME280;47610;52.252;20.922;2022-11-15T03:01:41;100487.52;;;5.38;100.00
61697;BME280;47610;52.252;20.922;2022-11-15T03:07:14;100474.63;;;5.29;100.00
61697;BME280;47610;52.252;20.922;2022-11-15T03:12:43;100468.55;;;5.23;100.00
61697;BME280;47610;52.252;20.922;2022-11-15T03:18:12;100469.38;;;5.19;100.00
61697;BME280;47610;52.252;20.922;2022-11-15T03:23:40;100463.93;;;5.19;100.00
61697;BME280;47610;52.252;20.922;2022-11-15T03:29:03;100457.95;;;5.20;100.00
61697;BME280;47610;52.252;20.922;2022-11-15T03:34:32;100449.95;;;5.19;100.00
61697;BME280;47610;52.252;20.922;2022-11-15T03:39:57;100438.96;;;5.16;100.00
61697;BME280;47610;52.252;20.922;2022-11-15T03:45:25;100436.06;;;5.08;100.00
61697;BME280;47610;52.252;20.922;2022-11-15T03:50:49;100426.73;;;5.01;100.00
61697;BME280;47610;52.252;20.922;2022-11-15T03:56:12;100421.55;;;4.98;100.00
61697;BME280;47610;52.252;20.922;2022-11-15T04:01:35;100414.86;;;4.93;100.00
61697;BME280;47610;52.252;20.922;2022-11-15T04:06:57;100408.89;;;4.92;100.00
61697;BME280;47610;52.252;20.922;2022-11-15T04:12:20;100404.66;;;4.91;100.00
61697;BME280;47610;52.252;20.922;2022-11-15T04:17:43;100402.01;;;4.96;100.00
61697;BME280;47610;52.252;20.922;2022-11-15T04:23:09;100395.67;;;4.98;100.00
61697;BME280;47610;52.252;20.922;2022-11-15T04:28:32;100394.59;;;4.98;100.00
61697;BME280;47610;52.252;20.922;2022-11-15T04:33:55;100389.94;;;4.98;100.00
61697;BME280;47610;52.252;20.922;2022-11-15T04:39:18;100391.52;;;4.96;100.00
61697;BME280;47610;52.252;20.922;2022-11-15T04:44:40;100392.05;;;4.99;100.00
61697;BME280;47610;52.252;20.922;2022-11-15T04:50:08;100386.96;;;5.06;100.00
61697;BME280;47610;52.252;20.922;2022-11-15T04:55:30;100386.14;;;5.14;100.00
61697;BME280;47610;52.252;20.922;2022-11-15T05:00:52;100382.25;;;5.18;100.00
61697;BME280;47610;52.252;20.922;2022-11-15T05:06:15;100382.53;;;5.23;100.00
61697;BME280;47610;52.252;20.922;2022-11-15T05:11:38;100374.22;;;5.28;100.00
61697;BME280;47610;52.252;20.922;2022-11-15T05:17:01;100372.20;;;5.28;100.00
61697;BME280;47610;52.252;20.922;2022-11-15T05:22:25;100369.11;;;5.24;100.00
61697;BME280;47610;52.252;20.922;2022-11-15T05:27:47;100365.91;;;5.25;100.00
61697;BME280;47610;52.252;20.922;2022-11-15T05:33:09;100358.51;;;5.25;100.00
61697;BME280;47610;52.252;20.922;2022-11-15T05:38:32;100363.30;;;5.28;100.00
61697;BME280;47610;52.252;20.922;2022-11-15T05:43:55;100361.59;;;5.24;100.00
61697;BME280;47610;52.252;20.922;2022-11-15T05:49:21;100356.33;;;5.23;100.00
61697;BME280;47610;52.252;20.922;2022-11-15T05:54:46;100352.25;;;5.26;100.00
61697;BME280;47610;52.252;20.922;2022-11-15T06:00:10;100346.27;;;5.31;100.00
61697;BME280;47610;52.252;20.922;2022-11-15T06:05:33;100346.04;;;5.27;100.00
61697;BME280;47610;52.252;20.922;2022-11-15T06:10:55;100352.40;;;5.23;100.00
61697;BME280;47610;52.252;20.922;2022-11-15T06:16:18;100352.83;;;5.22;100.00
61697;BME280;47610;52.252;20.922;2022-11-15T06:21:40;100361.29;;;5.23;100.00
61697;BME280;47610;52.252;20.922;2022-11-15T06:27:03;100365.11;;;5.20;100.00
61697;BME280;47610;52.252;20.922;2022-11-15T06:32:26;100361.05;;;5.22;100.00
61697;BME280;47610;52.252;20.922;2022-11-15T06:37:48;100357.44;;;5.22;100.00
61697;BME280;47610;52.252;20.922;2022-11-15T06:43:10;100362.65;;;5.21;100.00
61697;BME280;47610;52.252;20.922;2022-11-15T06:48:33;100362.52;;;5.21;100.00
61697;BME280;47610;52.252;20.922;2022-11-15T06:53:56;100366.52;;;5.20;100.00
61697;BME280;47610;52.252;20.922;2022-11-15T06:59:19;100372.48;;;5.16;100.00
61697;BME280;47610;52.252;20.922;2022-11-15T07:04:43;100369.35;;;5.14;100.00
61697;BME280;47610;52.252;20.922;2022-11-15T07:10:10;100373.24;;;5.18;100.00
61697;BME280;47610;52.252;20.922;2022-11-15T07:15:32;100375.02;;;5.22;100.00
61697;BME280;47610;52.252;20.922;2022-11-15T07:20:54;100378.09;;;5.25;100.00
61697;BME280;47610;52.252;20.922;2022-11-15T07:26:17;100374.80;;;5.27;100.00
61697;BME280;47610;52.252;20.922;2022-11-15T07:31:40;100375.85;;;5.28;100.00
61697;BME280;47610;52.252;20.922;2022-11-15T07:37:02;100371.73;;;5.23;100.00
61697;BME280;47610;52.252;20.922;2022-11-15T07:42:25;100371.34;;;5.29;100.00
61697;BME280;47610;52.252;20.922;2022-11-15T07:47:48;100362.65;;;5.33;100.00
61697;BME280;47610;52.252;20.922;2022-11-15T07:53:11;100355.00;;;5.33;100.00
61697;BME280;47610;52.252;20.922;2022-11-15T07:58:33;100352.84;;;5.31;100.00
61697;BME280;47610;52.252;20.922;2022-11-15T08:03:57;100343.79;;;5.32;100.00
61697;BME280;47610;52.252;20.922;2022-11-15T08:09:19;100333.98;;;5.32;100.00
61697;BME280;47610;52.252;20.922;2022-11-15T08:14:42;100327.58;;;5.40;100.00
61697;BME280;47610;52.252;20.922;2022-11-15T08:20:05;100326.31;;;5.45;100.00
61697;BME280;47610;52.252;20.922;2022-11-15T08:25:28;100317.86;;;5.45;100.00
61697;BME280;47610;52.252;20.922;2022-11-15T08:30:51;100312.27;;;5.51;100.00
61697;BME280;47610;52.252;20.922;2022-11-15T08:36:16;100311.60;;;5.59;100.00
61697;BME280;47610;52.252;20.922;2022-11-15T08:41:39;100313.59;;;5.62;100.00
61697;BME280;47610;52.252;20.922;2022-11-15T08:47:03;100308.98;;;5.67;100.00
61697;BME280;47610;52.252;20.922;2022-11-15T08:52:26;100311.84;;;5.74;100.00
61697;BME280;47610;52.252;20.922;2022-11-15T08:57:48;100308.33;;;5.73;100.00
61697;BME280;47610;52.252;20.922;2022-11-15T09:03:11;100303.95;;;5.73;100.00
61697;BME280;47610;52.252;20.922;2022-11-15T09:08:34;100301.75;;;5.76;100.00
61697;BME280;47610;52.252;20.922;2022-11-15T09:13:57;100292.20;;;5.76;100.00
61697;BME280;47610;52.252;20.922;2022-11-15T09:19:20;100285.66;;;5.83;100.00
61697;BME280;47610;52.252;20.922;2022-11-15T09:24:43;100277.33;;;5.85;100.00
61697;BME280;47610;52.252;20.922;2022-11-15T09:30:07;100272.40;;;5.91;100.00
61697;BME280;47610;52.252;20.922;2022-11-15T09:35:29;100268.12;;;5.93;100.00
61697;BME280;47610;52.252;20.922;2022-11-15T09:40:57;100261.59;;;5.94;100.00
61697;BME280;47610;52.252;20.922;2022-11-15T09:46:36;100254.34;;;6.00;100.00
61697;BME280;47610;52.252;20.922;2022-11-15T09:52:01;100250.72;;;6.06;100.00
61697;BME280;47610;52.252;20.922;2022-11-15T09:57:36;100249.30;;;6.10;100.00
61697;BME280;47610;52.252;20.922;2022-11-15T10:03:13;100239.56;;;6.09;100.00
61697;BME280;47610;52.252;20.922;2022-11-15T10:08:53;100234.09;;;6.06;100.00
61697;BME280;47610;52.252;20.922;2022-11-15T10:14:23;100223.02;;;6.08;100.00
61697;BME280;47610;52.252;20.922;2022-11-15T10:19:56;100217.67;;;6.11;100.00
61697;BME280;47610;52.252;20.922;2022-11-15T10:25:25;100214.86;;;6.15;100.00
61697;BME280;47610;52.252;20.922;2022-11-15T10:30:50;100217.34;;;6.18;100.00
61697;BME280;47610;52.252;20.922;2022-11-15T10:36:24;100212.63;;;6.24;100.00
61697;BME280;47610;52.252;20.922;2022-11-15T10:41:47;100202.48;;;6.26;100.00
61697;BME280;47610;52.252;20.922;2022-11-15T10:47:26;100203.03;;;6.34;100.00
61697;BME280;47610;52.252;20.922;2022-11-15T10:52:50;100198.61;;;6.47;100.00
61697;BME280;47610;52.252;20.922;2022-11-15T10:58:31;100197.39;;;6.54;100.00
61697;BME280;47610;52.252;20.922;2022-11-15T11:04:02;100189.46;;;6.58;100.00
61697;BME280;47610;52.252;20.922;2022-11-15T11:09:31;100186.57;;;6.67;100.00
61697;BME280;47610;52.252;20.922;2022-11-15T11:14:53;100190.94;;;6.71;100.00
61697;BME280;47610;52.252;20.922;2022-11-15T11:20:20;100186.77;;;6.74;100.00
61697;BME280;47610;52.252;20.922;2022-11-15T11:25:53;100179.37;;;6.78;100.00
61697;BME280;47610;52.252;20.922;2022-11-15T11:31:28;100171.90;;;6.85;100.00
61697;BME280;47610;52.252;20.922;2022-11-15T11:37:04;100162.06;;;6.91;100.00
61697;BME280;47610;52.252;20.922;2022-11-15T11:42:41;100155.52;;;6.94;100.00
61697;BME280;47610;52.252;20.922;2022-11-15T11:48:08;100151.04;;;6.94;100.00
61697;BME280;47610;52.252;20.922;2022-11-15T11:53:39;100143.05;;;6.99;100.00
61697;BME280;47610;52.252;20.922;2022-11-15T11:59:16;100138.71;;;7.02;100.00
61697;BME280;47610;52.252;20.922;2022-11-15T12:04:42;100123.39;;;7.09;100.00
61697;BME280;47610;52.252;20.922;2022-11-15T12:10:23;100122.11;;;7.13;100.00
61697;BME280;47610;52.252;20.922;2022-11-15T12:15:51;100118.77;;;7.19;100.00
61697;BME280;47610;52.252;20.922;2022-11-15T12:21:19;100117.92;;;7.23;100.00
61697;BME280;47610;52.252;20.922;2022-11-15T12:26:48;100108.98;;;7.19;100.00
61697;BME280;47610;52.252;20.922;2022-11-15T12:36:01;100096.48;;;7.18;100.00
61697;BME280;47610;52.252;20.922;2022-11-15T12:41:25;100091.11;;;7.18;100.00
61697;BME280;47610;52.252;20.922;2022-11-15T12:47:23;100087.45;;;7.18;100.00
61697;BME280;47610;52.252;20.922;2022-11-15T12:58:45;100092.13;;;7.03;100.00
61697;BME280;47610;52.252;20.922;2022-11-15T13:04:16;100086.02;;;7.01;100.00
61697;BME280;47610;52.252;20.922;2022-11-15T13:09:56;100084.67;;;7.02;100.00
61697;BME280;47610;52.252;20.922;2022-11-15T13:15:37;100082.23;;;7.05;100.00
61697;BME280;47610;52.252;20.922;2022-11-15T13:21:04;100079.05;;;7.03;100.00
61697;BME280;47610;52.252;20.922;2022-11-15T13:26:28;100072.48;;;7.03;100.00
61697;BME280;47610;52.252;20.922;2022-11-15T13:31:51;100066.89;;;7.03;100.00
61697;BME280;47610;52.252;20.922;2022-11-15T13:37:31;100057.55;;;6.96;100.00
61697;BME280;47610;52.252;20.922;2022-11-15T13:42:57;100056.36;;;6.94;100.00
61697;BME280;47610;52.252;20.922;2022-11-15T13:48:19;100052.42;;;6.93;100.00
61697;BME280;47610;52.252;20.922;2022-11-15T13:53:47;100050.95;;;6.94;100.00
61697;BME280;47610;52.252;20.922;2022-11-15T13:59:17;100048.58;;;6.94;100.00
61697;BME280;47610;52.252;20.922;2022-11-15T14:04:48;100049.09;;;6.89;100.00
61697;BME280;47610;52.252;20.922;2022-11-15T14:10:27;100044.09;;;6.86;100.00
61697;BME280;47610;52.252;20.922;2022-11-15T14:15:49;100037.86;;;6.88;100.00
61697;BME280;47610;52.252;20.922;2022-11-15T14:21:11;100033.98;;;6.94;100.00
61697;BME280;47610;52.252;20.922;2022-11-15T14:26:34;100032.62;;;7.00;100.00
61697;BME280;47610;52.252;20.922;2022-11-15T14:32:12;100035.21;;;7.04;100.00
61697;BME280;47610;52.252;20.922;2022-11-15T14:37:35;100030.20;;;7.07;100.00
61697;BME280;47610;52.252;20.922;2022-11-15T14:42:57;100026.92;;;7.08;100.00
61697;BME280;47610;52.252;20.922;2022-11-15T14:48:19;100032.77;;;7.06;100.00
61697;BME280;47610;52.252;20.922;2022-11-15T14:53:42;100028.55;;;6.94;100.00
61697;BME280;47610;52.252;20.922;2022-11-15T14:59:05;100026.88;;;6.90;100.00
61697;BME280;47610;52.252;20.922;2022-11-15T15:04:27;100026.05;;;6.87;100.00
61697;BME280;47610;52.252;20.922;2022-11-15T15:09:49;100024.40;;;6.82;100.00
61697;BME280;47610;52.252;20.922;2022-11-15T15:15:16;100024.29;;;6.81;100.00
61697;BME280;47610;52.252;20.922;2022-11-15T15:20:40;100021.16;;;6.81;100.00
61697;BME280;47610;52.252;20.922;2022-11-15T15:26:02;100013.92;;;6.79;100.00
61697;BME280;47610;52.252;20.922;2022-11-15T15:31:24;100014.71;;;6.70;100.00
61697;BME280;47610;52.252;20.922;2022-11-15T15:36:47;100011.58;;;6.63;100.00
61697;BME280;47610;52.252;20.922;2022-11-15T15:42:08;100012.63;;;6.58;100.00
61697;BME280;47610;52.252;20.922;2022-11-15T15:47:30;100014.56;;;6.55;100.00
61697;BME280;47610;52.252;20.922;2022-11-15T15:52:54;100008.48;;;6.53;100.00
61697;BME280;47610;52.252;20.922;2022-11-15T15:58:16;100002.44;;;6.57;100.00
61697;BME280;47610;52.252;20.922;2022-11-15T16:03:38;99993.27;;;6.53;100.00
61697;BME280;47610;52.252;20.922;2022-11-15T16:09:00;99991.69;;;6.48;100.00
61697;BME280;47610;52.252;20.922;2022-11-15T16:14:22;99988.48;;;6.44;100.00
61697;BME280;47610;52.252;20.922;2022-11-15T16:19:44;99985.84;;;6.43;100.00
61697;BME280;47610;52.252;20.922;2022-11-15T16:25:06;99982.80;;;6.41;100.00
61697;BME280;47610;52.252;20.922;2022-11-15T16:30:29;99981.52;;;6.43;100.00
61697;BME280;47610;52.252;20.922;2022-11-15T16:35:51;99985.50;;;6.46;100.00
61697;BME280;47610;52.252;20.922;2022-11-15T16:41:13;99983.21;;;6.47;100.00
61697;BME280;47610;52.252;20.922;2022-11-15T16:46:35;99990.25;;;6.46;100.00
61697;BME280;47610;52.252;20.922;2022-11-15T16:51:57;99983.90;;;6.40;100.00
61697;BME280;47610;52.252;20.922;2022-11-15T16:57:19;99988.15;;;6.33;100.00
61697;BME280;47610;52.252;20.922;2022-11-15T17:02:41;99992.39;;;6.30;100.00
61697;BME280;47610;52.252;20.922;2022-11-15T17:08:03;99987.55;;;6.28;100.00
61697;BME280;47610;52.252;20.922;2022-11-15T17:13:25;99983.73;;;6.28;100.00
61697;BME280;47610;52.252;20.922;2022-11-15T17:18:51;99974.20;;;6.23;100.00
61697;BME280;47610;52.252;20.922;2022-11-15T17:24:13;99976.23;;;6.23;100.00
61697;BME280;47610;52.252;20.922;2022-11-15T17:29:35;99970.88;;;6.18;100.00
61697;BME280;47610;52.252;20.922;2022-11-15T17:34:57;99981.38;;;6.14;100.00
61697;BME280;47610;52.252;20.922;2022-11-15T17:40:19;99990.20;;;6.10;100.00
61697;BME280;47610;52.252;20.922;2022-11-15T17:45:42;99984.55;;;6.05;100.00
61697;BME280;47610;52.252;20.922;2022-11-15T17:51:05;99980.73;;;6.00;100.00
61697;BME280;47610;52.252;20.922;2022-11-15T17:56:29;99976.26;;;5.90;100.00
61697;BME280;47610;52.252;20.922;2022-11-15T18:01:51;99966.02;;;5.80;100.00
61697;BME280;47610;52.252;20.922;2022-11-15T18:07:13;99960.26;;;5.73;100.00
61697;BME280;47610;52.252;20.922;2022-11-15T18:12:35;99960.39;;;5.74;100.00
61697;BME280;47610;52.252;20.922;2022-11-15T18:17:57;99961.09;;;5.78;100.00
61697;BME280;47610;52.252;20.922;2022-11-15T18:23:19;99954.66;;;5.79;100.00
61697;BME280;47610;52.252;20.922;2022-11-15T18:28:43;99953.10;;;5.81;100.00
61697;BME280;47610;52.252;20.922;2022-11-15T18:34:07;99961.05;;;5.83;100.00
61697;BME280;47610;52.252;20.922;2022-11-15T18:39:29;99963.11;;;5.83;100.00
61697;BME280;47610;52.252;20.922;2022-11-15T18:44:51;99956.65;;;5.81;100.00
61697;BME280;47610;52.252;20.922;2022-11-15T18:50:15;99952.73;;;5.78;100.00
61697;BME280;47610;52.252;20.922;2022-11-15T18:55:36;99953.47;;;5.71;100.00
61697;BME280;47610;52.252;20.922;2022-11-15T19:01:03;99954.66;;;5.66;100.00
61697;BME280;47610;52.252;20.922;2022-11-15T19:06:27;99959.52;;;5.62;100.00
61697;BME280;47610;52.252;20.922;2022-11-15T19:11:51;99957.49;;;5.44;100.00
61697;BME280;47610;52.252;20.922;2022-11-15T19:17:15;99955.13;;;5.28;100.00
61697;BME280;47610;52.252;20.922;2022-11-15T19:22:38;99957.88;;;5.14;100.00
61697;BME280;47610;52.252;20.922;2022-11-15T19:28:04;99952.95;;;5.10;100.00
61697;BME280;47610;52.252;20.922;2022-11-15T19:33:27;99951.27;;;5.07;100.00
61697;BME280;47610;52.252;20.922;2022-11-15T19:38:50;99949.95;;;5.03;100.00
61697;BME280;47610;52.252;20.922;2022-11-15T19:44:13;99944.80;;;4.97;100.00
61697;BME280;47610;52.252;20.922;2022-11-15T19:49:35;99938.05;;;4.95;100.00
61697;BME280;47610;52.252;20.922;2022-11-15T19:54:57;99930.47;;;4.88;100.00
61697;BME280;47610;52.252;20.922;2022-11-15T20:00:21;99934.23;;;4.84;100.00
61697;BME280;47610;52.252;20.922;2022-11-15T20:05:43;99935.62;;;4.79;100.00
61697;BME280;47610;52.252;20.922;2022-11-15T20:11:06;99929.68;;;4.83;100.00
61697;BME280;47610;52.252;20.922;2022-11-15T20:16:30;99926.33;;;4.85;100.00
61697;BME280;47610;52.252;20.922;2022-11-15T20:21:52;99928.61;;;4.84;100.00
61697;BME280;47610;52.252;20.922;2022-11-15T20:27:14;99927.94;;;4.90;100.00
61697;BME280;47610;52.252;20.922;2022-11-15T20:32:37;99925.89;;;4.92;100.00
61697;BME280;47610;52.252;20.922;2022-11-15T20:37:59;99929.52;;;4.93;100.00
61697;BME280;47610;52.252;20.922;2022-11-15T20:43:22;99928.83;;;4.98;100.00
61697;BME280;47610;52.252;20.922;2022-11-15T20:48:45;99923.36;;;4.94;100.00
61697;BME280;47610;52.252;20.922;2022-11-15T20:54:08;99935.67;;;4.86;100.00
61697;BME280;47610;52.252;20.922;2022-11-15T20:59:30;99932.24;;;4.76;100.00
61697;BME280;47610;52.252;20.922;2022-11-15T21:04:52;99914.73;;;4.70;100.00
61697;BME280;47610;52.252;20.922;2022-11-15T21:10:16;99910.63;;;4.68;100.00
61697;BME280;47610;52.252;20.922;2022-11-15T21:15:40;99917.42;;;4.67;100.00
61697;BME280;47610;52.252;20.922;2022-11-15T21:21:07;99922.05;;;4.66;100.00
61697;BME280;47610;52.252;20.922;2022-11-15T21:26:28;99914.24;;;4.66;100.00
61697;BME280;47610;52.252;20.922;2022-11-15T21:31:52;99914.14;;;4.62;100.00
61697;BME280;47610;52.252;20.922;2022-11-15T21:37:15;99900.27;;;4.54;100.00
61697;BME280;47610;52.252;20.922;2022-11-15T21:42:37;99894.69;;;4.50;100.00
61697;BME280;47610;52.252;20.922;2022-11-15T21:47:59;99876.25;;;4.49;100.00
61697;BME280;47610;52.252;20.922;2022-11-15T21:53:23;99881.14;;;4.55;100.00
61697;BME280;47610;52.252;20.922;2022-11-15T21:58:45;99878.86;;;4.55;100.00
61697;BME280;47610;52.252;20.922;2022-11-15T22:04:07;99871.45;;;4.55;100.00
61697;BME280;47610;52.252;20.922;2022-11-15T22:09:29;99866.60;;;4.60;100.00
61697;BME280;47610;52.252;20.922;2022-11-15T22:14:51;99874.57;;;4.60;100.00
61697;BME280;47610;52.252;20.922;2022-11-15T22:20:15;99865.71;;;4.58;100.00
61697;BME280;47610;52.252;20.922;2022-11-15T22:25:38;99852.39;;;4.53;100.00
61697;BME280;47610;52.252;20.922;2022-11-15T22:31:02;99849.72;;;4.50;100.00
61697;BME280;47610;52.252;20.922;2022-11-15T22:36:24;99835.70;;;4.48;100.00
61697;BME280;47610;52.252;20.922;2022-11-15T22:41:47;99828.20;;;4.50;100.00
61697;BME280;47610;52.252;20.922;2022-11-15T22:47:09;99827.48;;;4.51;100.00
61697;BME280;47610;52.252;20.922;2022-11-15T22:52:31;99819.91;;;4.53;100.00
61697;BME280;47610;52.252;20.922;2022-11-15T22:57:53;99818.94;;;4.58;100.00
61697;BME280;47610;52.252;20.922;2022-11-15T23:03:16;99807.58;;;4.62;100.00
61697;BME280;47610;52.252;20.922;2022-11-15T23:08:38;99810.36;;;4.65;100.00
61697;BME280;47610;52.252;20.922;2022-11-15T23:14:00;99808.08;;;4.65;100.00
61697;BME280;47610;52.252;20.922;2022-11-15T23:19:23;99811.46;;;4.65;100.00
61697;BME280;47610;52.252;20.922;2022-11-15T23:24:45;99811.42;;;4.70;100.00
61697;BME280;47610;52.252;20.922;2022-11-15T23:30:10;99814.81;;;4.75;100.00
61697;BME280;47610;52.252;20.922;2022-11-15T23:35:32;99816.23;;;4.74;100.00
61697;BME280;47610;52.252;20.922;2022-11-15T23:40:54;99810.36;;;4.77;100.00
61697;BME280;47610;52.252;20.922;2022-11-15T23:46:16;99799.45;;;4.81;100.00
61697;BME280;47610;52.252;20.922;2022-11-15T23:51:39;99795.89;;;4.86;100.00
61697;BME280;47610;52.252;20.922;2022-11-15T23:57:01;99797.04;;;4.87;100.00
